Time;durP1;ratioP1;P1;durP2;ratioP2;P2;SDS_P1;SDS_P2;PMS_P1;PMS_P2;Temp;Humidity;BMP_temperature;BMP_pressure;BME280_temperature;BME280_humidity;BME280_pressure;Samples;Min_cycle;Max_cycle;Signal;HPM_P1;HPM_P2
2022/05/16 00:01:22;;;;;;;12.07;3.88;;;;;;;;;;5130736;27;20051;-75
2022/05/16 00:03:52;;;;;;;7.90;3.58;;;;;;;;;;5129420;27;20505;-76
2022/05/16 00:06:23;;;;;;;15.50;4.05;;;;;;;;;;5130154;27;20429;-75
2022/05/16 00:08:55;;;;;;;13.52;4.22;;;;;;;;;;5129684;27;20383;-75
2022/05/16 00:11:25;;;;;;;9.70;3.85;;;;;;;;;;5129837;27;20039;-78
2022/05/16 00:13:57;;;;;;;14.23;3.25;;;;;;;;;;5130302;27;20619;-75
2022/05/16 00:16:27;;;;;;;10.93;3.53;;;;;;;;;;5126565;27;20178;-78
2022/05/16 00:19:04;;;;;;;5.13;3.15;;;;;;;;;;5129040;27;20413;-76
2022/05/16 00:21:36;;;;;;;14.85;3.42;;;;;;;;;;5128620;27;20402;-76
2022/05/16 00:24:07;;;;;;;9.10;3.30;;;;;;;;;;5129643;27;20453;-75
2022/05/16 00:26:39;;;;;;;15.23;3.63;;;;;;;;;;5126889;27;20050;-77
2022/05/16 00:29:09;;;;;;;8.60;4.53;;;;;;;;;;5126730;27;20042;-76
2022/05/16 00:31:39;;;;;;;8.63;3.72;;;;;;;;;;5129342;27;20051;-76
2022/05/16 00:34:09;;;;;;;8.07;3.30;;;;;;;;;;5128999;27;20058;-76
2022/05/16 00:36:42;;;;;;;8.88;3.67;;;;;;;;;;5125165;27;20062;-75
2022/05/16 00:39:13;;;;;;;12.98;3.30;;;;;;;;;;5128371;27;20121;-75
2022/05/16 00:41:43;;;;;;;12.60;3.40;;;;;;;;;;5128530;27;20398;-75
2022/05/16 00:44:14;;;;;;;12.32;3.60;;;;;;;;;;5123885;27;20050;-75
2022/05/16 00:46:45;;;;;;;10.55;3.92;;;;;;;;;;5128543;27;20406;-75
2022/05/16 00:49:31;;;;;;;10.40;5.13;;;;;;;;;;5126052;27;20039;-75
2022/05/16 00:52:10;;;;;;;12.73;4.22;;;;;;;;;;5125195;27;20059;-76
2022/05/16 00:54:56;;;;;;;14.65;4.32;;;;;;;;;;5127106;27;20046;-76
2022/05/16 00:57:43;;;;;;;9.02;3.88;;;;;;;;;;5128140;27;20397;-75
2022/05/16 01:00:18;;;;;;;10.27;3.40;;;;;;;;;;5127816;27;20039;-75
2022/05/16 01:05:49;;;;;;;10.25;4.70;;;;;;;;;;5126133;27;20039;-75
2022/05/16 01:08:24;;;;;;;10.38;4.18;;;;;;;;;;5128705;27;20047;-76
2022/05/16 01:10:56;;;;;;;8.25;4.70;;;;;;;;;;5126618;27;20054;-76
2022/05/16 01:13:30;;;;;;;7.05;3.92;;;;;;;;;;5126333;27;20039;-76
2022/05/16 01:16:02;;;;;;;9.15;4.57;;;;;;;;;;5127288;27;20525;-76
2022/05/16 01:18:32;;;;;;;7.50;3.97;;;;;;;;;;5128480;27;20039;-75
2022/05/16 01:21:05;;;;;;;15.85;4.95;;;;;;;;;;5126715;27;20521;-76
2022/05/16 01:23:51;;;;;;;7.78;4.93;;;;;;;;;;5128426;27;20035;-77
2022/05/16 01:26:26;;;;;;;8.40;4.25;;;;;;;;;;5128833;27;20043;-76
2022/05/16 01:28:57;;;;;;;15.32;4.43;;;;;;;;;;5125868;27;20051;-76
2022/05/16 01:31:27;;;;;;;10.88;4.25;;;;;;;;;;5126803;27;20055;-75
2022/05/16 01:33:57;;;;;;;11.43;4.20;;;;;;;;;;5128632;27;20490;-76
2022/05/16 01:36:28;;;;;;;9.63;4.68;;;;;;;;;;5127891;27;20051;-76
2022/05/16 01:38:57;;;;;;;7.70;4.03;;;;;;;;;;5127624;27;20074;-76
2022/05/16 01:41:27;;;;;;;8.10;4.13;;;;;;;;;;5128496;27;20424;-76
2022/05/16 01:44:00;;;;;;;4.82;3.83;;;;;;;;;;5128850;27;20047;-75
2022/05/16 01:46:34;;;;;;;14.10;4.28;;;;;;;;;;5126437;27;20058;-76
2022/05/16 01:49:06;;;;;;;10.25;4.57;;;;;;;;;;5128457;27;20054;-76
2022/05/16 01:51:37;;;;;;;9.20;4.10;;;;;;;;;;5127345;27;20059;-75
2022/05/16 01:54:07;;;;;;;14.95;4.43;;;;;;;;;;5128336;27;20051;-76
2022/05/16 01:56:37;;;;;;;12.05;4.38;;;;;;;;;;5128695;27;20063;-75
2022/05/16 01:59:08;;;;;;;9.48;4.07;;;;;;;;;;5128617;27;20458;-76
2022/05/16 02:01:38;;;;;;;6.47;4.20;;;;;;;;;;5129114;27;20043;-75
2022/05/16 02:04:08;;;;;;;6.28;3.60;;;;;;;;;;5128649;27;20051;-76
2022/05/16 02:06:38;;;;;;;4.60;2.60;;;;;;;;;;5128530;27;20058;-75
2022/05/16 02:09:08;;;;;;;10.15;2.72;;;;;;;;;;5128122;27;20043;-75
2022/05/16 02:11:38;;;;;;;6.90;2.00;;;;;;;;;;5126639;27;20042;-76
2022/05/16 02:14:09;;;;;;;9.90;2.17;;;;;;;;;;5128588;27;20039;-76
2022/05/16 02:16:39;;;;;;;5.88;2.25;;;;;;;;;;5127099;27;20062;-76
2022/05/16 02:19:09;;;;;;;5.93;1.85;;;;;;;;;;5128056;27;20043;-77
2022/05/16 02:24:38;;;;;;;4.07;1.90;;;;;;;;;;5128439;27;20039;-75
2022/05/16 02:27:16;;;;;;;8.40;1.75;;;;;;;;;;5128074;27;20043;-75
2022/05/16 02:29:46;;;;;;;1.88;1.20;;;;;;;;;;5128225;27;20061;-75
2022/05/16 02:32:16;;;;;;;7.28;1.50;;;;;;;;;;5127830;27;20058;-77
2022/05/16 02:34:46;;;;;;;7.82;1.48;;;;;;;;;;5127733;27;20062;-76
2022/05/16 02:37:16;;;;;;;5.13;1.60;;;;;;;;;;5127726;27;20066;-75
2022/05/16 02:39:46;;;;;;;6.18;1.52;;;;;;;;;;5127870;27;20066;-75
2022/05/16 02:42:16;;;;;;;6.18;1.50;;;;;;;;;;5127065;27;20059;-76
2022/05/16 02:44:46;;;;;;;10.10;1.40;;;;;;;;;;5127385;27;20043;-76
2022/05/16 02:47:18;;;;;;;3.55;1.33;;;;;;;;;;5128463;27;20051;-76
2022/05/16 02:49:49;;;;;;;7.95;1.83;;;;;;;;;;5127876;27;20062;-76
2022/05/16 02:52:19;;;;;;;3.78;1.30;;;;;;;;;;5127370;27;20051;-75
2022/05/16 02:54:51;;;;;;;5.88;1.58;;;;;;;;;;5127288;27;20043;-76
2022/05/16 02:57:21;;;;;;;5.82;1.60;;;;;;;;;;5127463;28;20413;-74
2022/05/16 02:59:51;;;;;;;5.10;1.70;;;;;;;;;;5127433;27;20061;-75
2022/05/16 03:02:22;;;;;;;6.10;1.58;;;;;;;;;;5127199;28;20043;-75
2022/05/16 03:04:52;;;;;;;7.20;2.08;;;;;;;;;;5127533;28;20528;-75
2022/05/16 03:07:22;;;;;;;6.75;1.50;;;;;;;;;;5127166;27;20046;-75
2022/05/16 03:09:52;;;;;;;7.00;1.38;;;;;;;;;;5127641;28;20050;-75
2022/05/16 03:12:22;;;;;;;3.95;1.08;;;;;;;;;;5126923;27;20047;-75
2022/05/16 03:14:52;;;;;;;7.30;1.58;;;;;;;;;;5126515;27;20478;-75
2022/05/16 03:17:23;;;;;;;2.45;1.10;;;;;;;;;;5126136;27;20055;-76
2022/05/16 03:19:54;;;;;;;18.77;1.55;;;;;;;;;;5126266;27;20417;-75
2022/05/16 03:22:31;;;;;;;4.50;1.15;;;;;;;;;;5126537;27;20055;-75
2022/05/16 03:25:02;;;;;;;5.50;1.48;;;;;;;;;;5125369;28;20039;-75
2022/05/16 03:27:32;;;;;;;7.20;1.70;;;;;;;;;;5125018;27;20059;-76
2022/05/16 03:30:02;;;;;;;9.63;1.75;;;;;;;;;;5129331;27;20054;-75
2022/05/16 03:32:32;;;;;;;7.68;2.03;;;;;;;;;;5130770;27;20051;-75
2022/05/16 03:35:05;;;;;;;7.43;1.92;;;;;;;;;;5130703;27;20039;-75
2022/05/16 03:37:35;;;;;;;4.75;1.08;;;;;;;;;;5130807;27;20043;-75
2022/05/16 03:42:55;;;;;;;2.97;1.40;;;;;;;;;;5129994;27;21494;-75
2022/05/16 03:45:25;;;;;;;3.92;1.42;;;;;;;;;;5130602;27;20047;-76
2022/05/16 03:47:55;;;;;;;5.22;1.42;;;;;;;;;;5130187;27;20043;-75
2022/05/16 03:50:26;;;;;;;8.57;1.67;;;;;;;;;;5129807;27;20047;-75
2022/05/16 03:52:59;;;;;;;;;;;;;;;;;;5130591;27;20078;-75
2022/05/16 03:55:31;;;;;;;4.75;1.60;;;;;;;;;;5130532;27;19923;-74
2022/05/16 03:58:01;;;;;;;4.20;1.27;;;;;;;;;;5130291;27;20117;-75
2022/05/16 04:00:31;;;;;;;5.90;1.55;;;;;;;;;;5128945;27;20508;-75
2022/05/16 04:03:02;;;;;;;3.35;1.00;;;;;;;;;;5129736;27;20051;-75
2022/05/16 04:05:32;;;;;;;6.07;1.15;;;;;;;;;;5129841;27;20108;-75
2022/05/16 04:08:03;;;;;;;6.15;1.45;;;;;;;;;;5129344;27;20062;-75
2022/05/16 04:10:33;;;;;;;6.95;1.40;;;;;;;;;;5130534;27;20058;-75
2022/05/16 04:13:03;;;;;;;8.00;1.42;;;;;;;;;;5128132;27;20047;-75
2022/05/16 04:15:33;;;;;;;8.55;1.25;;;;;;;;;;5130371;27;20073;-75
2022/05/16 04:18:03;;;;;;;5.57;1.70;;;;;;;;;;5129747;27;20050;-75
2022/05/16 04:20:33;;;;;;;6.57;1.40;;;;;;;;;;5129361;27;20043;-75
2022/05/16 04:23:03;;;;;;;5.55;0.75;;;;;;;;;;5129611;27;20058;-75
2022/05/16 04:25:33;;;;;;;7.68;0.98;;;;;;;;;;5129835;27;20047;-75
2022/05/16 04:28:03;;;;;;;1.20;0.70;;;;;;;;;;5129493;27;20043;-75
2022/05/16 04:30:34;;;;;;;6.47;0.80;;;;;;;;;;5128191;27;20055;-75
2022/05/16 04:33:04;;;;;;;1.15;0.50;;;;;;;;;;5129519;27;20058;-74
2022/05/16 04:35:36;;;;;;;2.37;0.80;;;;;;;;;;5129805;27;20043;-75
2022/05/16 04:38:07;;;;;;;3.55;0.93;;;;;;;;;;5129576;27;20061;-76
2022/05/16 04:42:40;;;;;;;7.65;0.80;;;;;;;;;;5128908;27;20032;-75
2022/05/16 04:43:30;;;;;;;5.13;0.88;;;;;;;;;;5129160;27;20042;-75
2022/05/16 04:46:03;;;;;;;8.88;1.05;;;;;;;;;;5129037;27;20050;-75
2022/05/16 04:48:34;;;;;;;9.45;1.10;;;;;;;;;;5128855;27;20050;-75
2022/05/16 04:51:04;;;;;;;3.50;0.68;;;;;;;;;;5129288;27;20054;-75
2022/05/16 04:53:38;;;;;;;4.28;1.10;;;;;;;;;;5127406;27;20054;-75
2022/05/16 04:56:09;;;;;;;9.60;0.90;;;;;;;;;;5129427;27;20398;-75
2022/05/16 04:58:39;;;;;;;7.78;1.08;;;;;;;;;;5128985;27;20502;-75
2022/05/16 05:01:09;;;;;;;3.90;0.98;;;;;;;;;;5126556;27;20426;-75
2022/05/16 05:03:40;;;;;;;28.65;1.38;;;;;;;;;;5128813;27;20050;-75
2022/05/16 05:06:11;;;;;;;3.25;0.95;;;;;;;;;;5128329;27;20414;-75
2022/05/16 05:08:41;;;;;;;6.43;1.38;;;;;;;;;;5128737;27;20062;-76
2022/05/16 05:16:47;;;;;;;3.78;1.00;;;;;;;;;;5128251;27;20506;-75
2022/05/16 05:19:21;;;;;;;6.38;1.20;;;;;;;;;;5127005;27;20501;-75
2022/05/16 05:21:51;;;;;;;3.55;1.15;;;;;;;;;;5127346;27;20513;-75
2022/05/16 05:24:22;;;;;;;8.23;1.35;;;;;;;;;;5129278;27;20050;-75
2022/05/16 05:26:52;;;;;;;7.25;1.08;;;;;;;;;;5127850;27;20051;-74
2022/05/16 05:29:22;;;;;;;6.18;1.00;;;;;;;;;;5128542;27;20457;-75
2022/05/16 05:31:53;;;;;;;5.88;1.23;;;;;;;;;;5128034;27;20059;-75
2022/05/16 05:34:23;;;;;;;5.32;1.08;;;;;;;;;;5128142;27;20039;-74
2022/05/16 05:36:54;;;;;;;8.07;1.48;;;;;;;;;;5126874;27;20035;-74
2022/05/16 05:39:25;;;;;;;;;;;;;;;;;;5128286;27;20051;-74
2022/05/16 05:41:54;;;;;;;5.97;1.30;;;;;;;;;;5127788;27;19945;-74
2022/05/16 05:44:25;;;;;;;6.85;1.40;;;;;;;;;;5126839;27;20051;-74
2022/05/16 05:46:54;;;;;;;3.25;1.17;;;;;;;;;;5128488;27;20043;-74
2022/05/16 05:49:24;;;;;;;11.27;1.48;;;;;;;;;;5128495;27;20490;-74
2022/05/16 05:51:56;;;;;;;4.45;0.98;;;;;;;;;;5125776;27;20054;-75
2022/05/16 05:54:28;;;;;;;4.43;1.20;;;;;;;;;;5143219;27;20046;-75
2022/05/16 05:56:58;;;;;;;8.05;1.25;;;;;;;;;;5153964;27;20037;-74
2022/05/16 05:59:29;;;;;;;3.92;1.00;;;;;;;;;;5150787;27;20035;-74
2022/05/16 06:02:00;;;;;;;5.38;1.30;;;;;;;;;;5146287;27;20027;-75
2022/05/16 06:04:30;;;;;;;3.20;0.93;;;;;;;;;;5154441;27;20023;-74
2022/05/16 06:07:04;;;;;;;3.25;1.10;;;;;;;;;;5154493;27;20015;-75
2022/05/16 06:09:34;;;;;;;1.67;0.95;;;;;;;;;;5154571;27;20041;-75
2022/05/16 06:12:06;;;;;;;6.20;0.90;;;;;;;;;;5148055;27;20400;-75
2022/05/16 06:14:37;;;;;;;3.63;0.90;;;;;;;;;;5127516;27;20051;-75
2022/05/16 06:17:07;;;;;;;6.45;0.93;;;;;;;;;;5127166;27;20045;-75
2022/05/16 06:19:36;;;;;;;7.93;1.20;;;;;;;;;;5127138;27;20047;-75
2022/05/16 06:22:07;;;;;;;3.05;0.88;;;;;;;;;;5127478;27;20543;-74
2022/05/16 06:27:28;;;;;;;7.38;1.20;;;;;;;;;;5127961;27;20048;-75
2022/05/16 06:29:59;;;;;;;7.97;0.98;;;;;;;;;;5125758;27;20054;-75
2022/05/16 06:32:36;;;;;;;2.90;0.93;;;;;;;;;;5126946;27;20043;-74
2022/05/16 06:35:07;;;;;;;4.20;0.90;;;;;;;;;;5125796;27;20047;-74
2022/05/16 06:37:39;;;;;;;8.18;0.95;;;;;;;;;;5127138;27;20049;-75
2022/05/16 06:40:10;;;;;;;2.70;1.05;;;;;;;;;;5126922;27;20054;-74
2022/05/16 06:42:41;;;;;;;3.47;0.77;;;;;;;;;;5126954;27;20043;-74
2022/05/16 06:45:12;;;;;;;7.68;1.13;;;;;;;;;;5126588;27;20035;-75
2022/05/16 06:47:43;;;;;;;9.05;1.02;;;;;;;;;;5125424;27;20509;-74
2022/05/16 06:50:13;;;;;;;5.65;1.15;;;;;;;;;;5126437;27;20049;-75
2022/05/16 06:52:43;;;;;;;4.32;0.90;;;;;;;;;;5108753;28;20085;-74
2022/05/16 06:55:13;;;;;;;5.53;0.90;;;;;;;;;;5126879;28;20493;-74
2022/05/16 06:57:44;;;;;;;3.13;0.70;;;;;;;;;;5126133;28;20043;-74
2022/05/16 07:00:16;;;;;;;3.72;1.00;;;;;;;;;;5126503;27;20453;-74
2022/05/16 07:02:47;;;;;;;12.65;0.95;;;;;;;;;;5126800;27;20066;-75
2022/05/16 07:05:37;;;;;;;2.13;0.93;;;;;;;;;;5130850;27;20054;-73
2022/05/16 07:08:08;;;;;;;4.70;0.80;;;;;;;;;;5131111;27;20039;-73
2022/05/16 07:10:38;;;;;;;5.55;1.15;;;;;;;;;;5131550;27;20429;-74
2022/05/16 07:13:08;;;;;;;1.05;0.68;;;;;;;;;;5131411;27;20043;-73
2022/05/16 07:15:38;;;;;;;4.35;1.05;;;;;;;;;;5131048;27;20065;-73
2022/05/16 07:18:08;;;;;;;2.50;0.90;;;;;;;;;;5131298;27;20057;-73
2022/05/16 07:20:40;;;;;;;2.92;1.05;;;;;;;;;;5128874;27;20429;-72
2022/05/16 07:23:10;;;;;;;7.78;1.10;;;;;;;;;;5129460;27;20058;-73
2022/05/16 07:28:29;;;;;;;9.73;1.55;;;;;;;;;;5130913;27;20043;-73
2022/05/16 07:30:59;;;;;;;7.35;0.90;;;;;;;;;;5130713;27;20058;-73
2022/05/16 07:33:29;;;;;;;2.95;0.80;;;;;;;;;;5131379;27;20054;-73
2022/05/16 07:35:59;;;;;;;9.13;1.30;;;;;;;;;;5130715;27;20061;-74
2022/05/16 07:38:29;;;;;;;13.18;1.30;;;;;;;;;;5128196;27;21031;-74
2022/05/16 07:41:00;;;;;;;6.63;1.48;;;;;;;;;;5130317;27;20501;-75
2022/05/16 07:43:30;;;;;;;6.57;1.17;;;;;;;;;;5130295;27;20043;-74
2022/05/16 07:46:00;;;;;;;6.28;1.15;;;;;;;;;;5130538;27;20047;-74
2022/05/16 07:48:31;;;;;;;3.20;1.10;;;;;;;;;;5129913;27;20043;-74
2022/05/16 07:51:02;;;;;;;6.85;1.50;;;;;;;;;;5130011;27;20055;-74
2022/05/16 07:53:32;;;;;;;9.07;1.30;;;;;;;;;;5130050;27;20039;-74
2022/05/16 07:56:03;;;;;;;4.72;1.33;;;;;;;;;;5130768;27;20410;-75
2022/05/16 07:58:34;;;;;;;11.55;1.65;;;;;;;;;;5130580;27;20512;-74
2022/05/16 08:01:04;;;;;;;6.30;1.73;;;;;;;;;;5129905;27;20047;-73
2022/05/16 08:03:34;;;;;;;3.38;1.38;;;;;;;;;;5128275;27;20055;-73
2022/05/16 08:06:04;;;;;;;3.00;1.17;;;;;;;;;;5130265;27;20054;-74
2022/05/16 08:11:23;;;;;;;6.03;1.30;;;;;;;;;;5129646;27;20043;-73
2022/05/16 08:13:53;;;;;;;4.93;1.45;;;;;;;;;;5129014;27;20760;-74
2022/05/16 08:16:23;;;;;;;5.95;2.17;;;;;;;;;;5129708;27;20046;-74
2022/05/16 08:18:53;;;;;;;3.53;1.35;;;;;;;;;;5130136;27;20516;-73
2022/05/16 08:21:23;;;;;;;11.18;1.52;;;;;;;;;;5129769;27;20043;-74
2022/05/16 08:23:53;;;;;;;4.22;1.50;;;;;;;;;;5129304;27;20059;-74
2022/05/16 08:26:23;;;;;;;4.93;1.40;;;;;;;;;;5129088;27;20406;-73
2022/05/16 08:28:53;;;;;;;4.68;1.55;;;;;;;;;;5129658;27;20656;-74
2022/05/16 08:31:28;;;;;;;8.38;1.95;;;;;;;;;;5129273;27;20043;-73
2022/05/16 08:33:58;;;;;;;4.75;1.60;;;;;;;;;;5130477;27;20043;-74
2022/05/16 08:42:09;;;;;;;4.65;1.42;;;;;;;;;;5130117;27;20039;-75
2022/05/16 08:45:09;;;;;;;13.02;1.60;;;;;;;;;;5128345;27;20518;-74
2022/05/16 08:48:32;;;;;;;1.77;1.00;;;;;;;;;;5124439;27;20051;-75
2022/05/16 08:51:30;;;;;;;2.47;1.00;;;;;;;;;;5045199;28;20455;-74
2022/05/16 08:54:12;;;;;;;2.67;1.00;;;;;;;;;;5129467;27;20050;-74
2022/05/16 08:56:46;;;;;;;4.05;1.10;;;;;;;;;;5129028;27;20047;-74
2022/05/16 08:59:21;;;;;;;2.22;1.00;;;;;;;;;;5129018;27;20043;-75
2022/05/16 09:01:59;;;;;;;3.05;1.40;;;;;;;;;;5129678;27;20058;-75
2022/05/16 09:04:41;;;;;;;11.77;1.40;;;;;;;;;;5129723;27;20050;-74
2022/05/16 09:07:34;;;;;;;4.97;1.10;;;;;;;;;;5111869;27;20054;-74
2022/05/16 09:10:12;;;;;;;8.43;1.52;;;;;;;;;;5128767;27;20043;-74
2022/05/16 09:12:54;;;;;;;5.32;1.50;;;;;;;;;;5128854;27;20055;-74
2022/05/16 09:15:51;;;;;;;10.15;1.40;;;;;;;;;;5128890;27;20043;-74
2022/05/16 09:18:42;;;;;;;5.35;1.30;;;;;;;;;;5128634;27;20047;-74
2022/05/16 09:21:20;;;;;;;7.13;1.33;;;;;;;;;;5129088;27;20054;-74
2022/05/16 09:24:01;;;;;;;2.13;1.15;;;;;;;;;;5129607;27;20307;-74
2022/05/16 09:26:55;;;;;;;12.32;1.83;;;;;;;;;;5128156;27;21248;-75
2022/05/16 09:29:39;;;;;;;5.15;1.38;;;;;;;;;;5128367;27;20043;-75
2022/05/16 09:32:32;;;;;;;2.97;1.30;;;;;;;;;;5128753;27;20039;-75
2022/05/16 09:35:04;;;;;;;3.17;1.40;;;;;;;;;;5127755;27;20157;-75
2022/05/16 09:37:35;;;;;;;6.15;1.65;;;;;;;;;;5128784;27;20470;-74
2022/05/16 09:40:05;;;;;;;4.85;2.50;;;;;;;;;;5128463;27;20050;-74
2022/05/16 09:42:36;;;;;;;3.45;1.77;;;;;;;;;;5126666;27;20410;-75
2022/05/16 09:45:23;;;;;;;4.73;1.83;;;;;;;;;;5128347;27;20050;-76
2022/05/16 09:47:53;;;;;;;6.05;2.03;;;;;;;;;;5128262;27;20039;-74
2022/05/16 09:50:30;;;;;;;4.15;1.95;;;;;;;;;;5128792;27;20054;-74
2022/05/16 09:53:05;;;;;;;6.53;2.70;;;;;;;;;;5128934;27;20050;-74
2022/05/16 09:55:46;;;;;;;7.25;1.92;;;;;;;;;;5128082;27;20047;-75
2022/05/16 09:58:22;;;;;;;6.47;2.10;;;;;;;;;;5128332;27;20039;-79
2022/05/16 10:01:01;;;;;;;9.65;1.90;;;;;;;;;;5128313;27;20051;-74
2022/05/16 10:03:42;;;;;;;12.55;2.08;;;;;;;;;;5127715;27;20510;-75
2022/05/16 10:06:32;;;;;;;5.40;1.90;;;;;;;;;;5127411;27;20050;-78
2022/05/16 10:09:09;;;;;;;6.20;2.20;;;;;;;;;;5128330;27;20402;-73
2022/05/16 10:11:40;;;;;;;11.05;6.80;;;;;;;;;;5128094;27;20043;-73
2022/05/16 10:14:11;;;;;;;7.05;2.10;;;;;;;;;;5128172;27;20055;-74
2022/05/16 10:16:46;;;;;;;5.72;2.42;;;;;;;;;;5127444;27;20055;-74
2022/05/16 10:19:22;;;;;;;5.72;2.13;;;;;;;;;;5127523;27;20051;-74
2022/05/16 10:22:03;;;;;;;3.40;1.75;;;;;;;;;;5127944;27;20383;-75
2022/05/16 10:24:39;;;;;;;11.63;2.33;;;;;;;;;;5127236;27;20039;-74
2022/05/16 10:27:12;;;;;;;13.18;2.30;;;;;;;;;;5127276;27;20051;-74
2022/05/16 10:29:48;;;;;;;6.85;2.05;;;;;;;;;;5129931;27;20402;-76
2022/05/16 10:35:33;;;;;;;13.63;6.18;;;;;;;;;;5126177;27;20544;-75
2022/05/16 10:38:12;;;;;;;13.63;2.03;;;;;;;;;;5126870;27;20047;-74
2022/05/16 10:40:45;;;;;;;4.05;1.45;;;;;;;;;;5126297;27;20054;-81
2022/05/16 10:43:36;;;;;;;4.18;1.65;;;;;;;;;;5124483;27;20113;-74
2022/05/16 10:46:15;;;;;;;10.15;2.08;;;;;;;;;;5126788;27;20040;-73
2022/05/16 10:48:58;;;;;;;6.35;1.60;;;;;;;;;;5127126;27;20413;-75
2022/05/16 10:51:36;;;;;;;2.75;1.48;;;;;;;;;;5127464;27;20406;-74
2022/05/16 10:54:13;;;;;;;9.52;2.40;;;;;;;;;;5126710;28;20044;-74
2022/05/16 10:57:07;;;;;;;5.40;1.70;;;;;;;;;;5126411;28;20047;-73
2022/05/16 11:00:12;;;;;;;4.88;1.85;;;;;;;;;;5126871;27;20100;-75
2022/05/16 11:03:10;;;;;;;11.15;2.72;;;;;;;;;;5126846;28;20036;-74
2022/05/16 11:06:22;;;;;;;9.63;2.22;;;;;;;;;;5127241;27;20513;-75
2022/05/16 11:09:07;;;;;;;3.13;1.60;;;;;;;;;;5127022;27;20069;-75
2022/05/16 11:11:46;;;;;;;5.50;1.30;;;;;;;;;;5127065;28;20043;-72
2022/05/16 11:14:29;;;;;;;4.90;1.38;;;;;;;;;;5126565;28;20039;-73
2022/05/16 11:17:24;;;;;;;9.90;1.58;;;;;;;;;;5126787;28;20496;-72
2022/05/16 11:20:25;;;;;;;6.63;1.40;;;;;;;;;;5126724;27;20051;-73
2022/05/16 11:23:22;;;;;;;4.43;0.80;;;;;;;;;;5127216;28;20054;-74
2022/05/16 11:26:11;;;;;;;8.90;1.70;;;;;;;;;;5126791;27;20039;-74
2022/05/16 11:29:18;;;;;;;2.10;0.90;;;;;;;;;;5127283;28;20039;-73
2022/05/16 11:32:03;;;;;;;4.78;1.10;;;;;;;;;;5126854;27;20061;-73
2022/05/16 11:34:53;;;;;;;2.55;0.93;;;;;;;;;;5126844;28;20528;-75
2022/05/16 11:37:44;;;;;;;1.70;0.75;;;;;;;;;;5126463;28;20544;-74
2022/05/16 11:40:35;;;;;;;;;;;;;;;;;;5125847;28;20545;-74
2022/05/16 11:43:07;;;;;;;15.55;1.25;;;;;;;;;;5126359;27;19923;-73
2022/05/16 11:46:13;;;;;;;3.00;0.80;;;;;;;;;;5126891;28;20062;-74
2022/05/16 11:49:05;;;;;;;3.67;0.90;;;;;;;;;;5126941;27;20051;-74
2022/05/16 11:52:10;;;;;;;3.72;0.93;;;;;;;;;;5130666;27;20051;-75
2022/05/16 11:54:58;;;;;;;3.85;1.40;;;;;;;;;;5130291;27;20043;-74
2022/05/16 12:03:21;;;;;;;6.68;1.02;;;;;;;;;;5129804;27;20043;-75
2022/05/16 12:06:11;;;;;;;7.03;1.08;;;;;;;;;;5129100;27;20039;-74
2022/05/16 12:08:48;;;;;;;4.47;0.98;;;;;;;;;;5129230;27;20395;-77
2022/05/16 12:11:26;;;;;;;3.05;1.02;;;;;;;;;;5130785;27;20536;-75
2022/05/16 12:14:10;;;;;;;11.75;1.38;;;;;;;;;;5130127;27;20046;-75
2022/05/16 12:16:54;;;;;;;19.27;2.58;;;;;;;;;;5129804;27;20050;-74
2022/05/16 12:19:34;;;;;;;8.38;1.52;;;;;;;;;;5129175;27;20113;-75
2022/05/16 12:22:19;;;;;;;4.88;1.30;;;;;;;;;;5129759;27;20827;-74
2022/05/16 12:24:53;;;;;;;9.57;1.40;;;;;;;;;;5129489;27;20074;-75
2022/05/16 12:27:30;;;;;;;9.35;1.88;;;;;;;;;;5127974;27;20043;-75
2022/05/16 12:30:10;;;;;;;5.25;1.00;;;;;;;;;;5129145;27;20051;-75
2022/05/16 12:32:47;;;;;;;7.15;1.45;;;;;;;;;;5130090;27;20791;-75
2022/05/16 12:35:29;;;;;;;4.68;1.38;;;;;;;;;;5129978;27;20053;-74
2022/05/16 12:37:59;;;;;;;2.67;1.08;;;;;;;;;;5129113;27;20054;-76
2022/05/16 12:41:06;;;;;;;6.50;1.67;;;;;;;;;;5129325;27;20050;-74
2022/05/16 12:44:14;;;;;;;4.53;1.60;;;;;;;;;;5129493;27;20047;-75
2022/05/16 12:47:13;;;;;;;10.43;1.75;;;;;;;;;;5129291;27;20047;-75
2022/05/16 12:50:02;;;;;;;7.68;0.98;;;;;;;;;;5127311;27;20818;-75
2022/05/16 12:53:04;;;;;;;7.05;1.77;;;;;;;;;;5125566;27;20051;-74
2022/05/16 12:56:02;;;;;;;4.55;2.53;;;;;;;;;;5125311;27;20061;-76
2022/05/16 12:58:46;;;;;;;6.53;1.40;;;;;;;;;;5129373;27;20054;-74
2022/05/16 13:01:34;;;;;;;11.10;1.48;;;;;;;;;;5128649;27;20646;-75
2022/05/16 13:04:33;;;;;;;7.53;1.45;;;;;;;;;;5129163;27;20054;-75
2022/05/16 13:07:08;;;;;;;4.55;1.50;;;;;;;;;;5129316;27;20521;-76
2022/05/16 13:10:04;;;;;;;7.90;1.48;;;;;;;;;;5127737;27;20051;-76
2022/05/16 13:12:59;;;;;;;7.28;1.15;;;;;;;;;;5121625;27;20544;-74
2022/05/16 13:15:36;;;;;;;4.72;1.90;;;;;;;;;;5129487;27;20054;-74
2022/05/16 13:18:31;;;;;;;11.98;1.95;;;;;;;;;;5128536;27;20050;-76
2022/05/16 13:21:05;;;;;;;7.95;1.23;;;;;;;;;;5128185;27;20047;-75
2022/05/16 13:23:35;;;;;;;8.68;1.23;;;;;;;;;;5128303;27;20051;-75
2022/05/16 13:31:48;;;;;;;3.85;1.67;;;;;;;;;;5128873;27;20051;-74
2022/05/16 13:34:34;;;;;;;5.97;1.42;;;;;;;;;;5128198;27;20383;-74
2022/05/16 13:37:10;;;;;;;6.10;1.20;;;;;;;;;;5126719;27;20062;-74
2022/05/16 13:39:43;;;;;;;4.70;1.15;;;;;;;;;;5128024;27;20047;-74
2022/05/16 13:42:14;;;;;;;11.90;1.98;;;;;;;;;;5128497;27;20375;-74
2022/05/16 13:44:45;;;;;;;14.38;1.92;;;;;;;;;;5125950;27;20059;-74
2022/05/16 13:47:21;;;;;;;11.55;2.00;;;;;;;;;;5127861;27;20533;-74
2022/05/16 13:49:51;;;;;;;9.80;1.70;;;;;;;;;;5128405;27;20051;-75
2022/05/16 13:52:37;;;;;;;11.75;2.13;;;;;;;;;;5126727;27;20478;-74
2022/05/16 13:55:12;;;;;;;6.57;1.58;;;;;;;;;;5127012;27;20070;-75
2022/05/16 13:57:42;;;;;;;9.57;1.70;;;;;;;;;;5128011;27;20046;-74
2022/05/16 14:00:34;;;;;;;8.63;1.40;;;;;;;;;;5127591;27;20057;-74
2022/05/16 14:03:09;;;;;;;7.13;1.65;;;;;;;;;;5127517;27;20050;-75
2022/05/16 14:05:42;;;;;;;7.13;1.70;;;;;;;;;;5128170;27;20046;-74
2022/05/16 14:08:24;;;;;;;5.40;1.50;;;;;;;;;;5127991;27;20043;-74
2022/05/16 14:10:55;;;;;;;13.60;3.25;;;;;;;;;;5127631;27;20058;-75
2022/05/16 14:13:29;;;;;;;5.05;1.15;;;;;;;;;;5125931;27;20120;-75
2022/05/16 14:16:07;;;;;;;3.33;1.10;;;;;;;;;;5127119;27;20062;-75
2022/05/16 14:18:49;;;;;;;4.20;1.20;;;;;;;;;;5127418;27;20051;-74
2022/05/16 14:21:26;;;;;;;8.30;1.30;;;;;;;;;;5127533;27;20402;-73
2022/05/16 14:24:04;;;;;;;2.55;1.33;;;;;;;;;;5127134;27;20047;-74
2022/05/16 14:26:39;;;;;;;6.45;1.27;;;;;;;;;;5128236;27;20518;-74
2022/05/16 14:29:21;;;;;;;10.30;1.30;;;;;;;;;;5127849;27;20661;-74
2022/05/16 14:31:54;;;;;;;6.40;1.20;;;;;;;;;;5127469;27;20051;-73
2022/05/16 14:34:36;;;;;;;6.32;1.10;;;;;;;;;;5127319;27;20047;-75
2022/05/16 14:37:28;;;;;;;8.15;1.35;;;;;;;;;;5126942;27;20054;-75
2022/05/16 14:40:01;;;;;;;4.50;1.10;;;;;;;;;;5126767;27;20051;-75
2022/05/16 14:42:35;;;;;;;4.07;1.20;;;;;;;;;;5126207;27;20038;-77
2022/05/16 14:45:12;;;;;;;9.48;1.30;;;;;;;;;;5127031;27;20047;-75
2022/05/16 14:47:44;;;;;;;3.95;1.05;;;;;;;;;;5127802;27;20051;-74
2022/05/16 14:50:20;;;;;;;7.78;1.02;;;;;;;;;;5127448;27;20054;-73
2022/05/16 14:53:21;;;;;;;11.60;1.33;;;;;;;;;;5127303;27;20537;-74
2022/05/16 14:55:52;;;;;;;4.07;0.50;;;;;;;;;;5123804;27;20066;-75
2022/05/16 14:58:22;;;;;;;;;;;;;;;;;;5128028;28;20051;-74
2022/05/16 15:06:42;;;;;;;1.92;0.98;;;;;;;;;;5127653;28;20043;-74
2022/05/16 15:09:15;;;;;;;2.30;0.77;;;;;;;;;;5127019;28;20035;-75
2022/05/16 15:11:49;;;;;;;4.10;0.90;;;;;;;;;;5127232;27;20505;-74
2022/05/16 15:14:21;;;;;;;1.75;0.80;;;;;;;;;;5126951;27;20406;-77
2022/05/16 15:16:53;;;;;;;10.23;1.00;;;;;;;;;;5127234;27;20047;-74
2022/05/16 15:19:23;;;;;;;;;;;;;;;;;;5128165;27;20046;-74
2022/05/16 15:21:58;;;;;;;2.83;0.95;;;;;;;;;;5127127;27;19923;-74
2022/05/16 15:24:34;;;;;;;4.35;0.95;;;;;;;;;;5135946;27;20728;-74
2022/05/16 15:27:21;;;;;;;7.60;1.00;;;;;;;;;;5157602;27;20023;-74
2022/05/16 15:29:52;;;;;;;6.80;1.02;;;;;;;;;;5157399;27;20339;-76
2022/05/16 15:32:22;;;;;;;;;;;;;;;;;;5156883;27;20035;-75
2022/05/16 15:34:52;;;;;;;3.90;0.90;;;;;;;;;;5156904;27;19927;-74
2022/05/16 15:37:23;;;;;;;2.50;0.80;;;;;;;;;;5130950;27;20042;-75
2022/05/16 15:39:54;;;;;;;;;;;;;;;;;;5131107;27;20047;-77
2022/05/16 15:42:27;;;;;;;1.17;0.68;;;;;;;;;;5131595;27;19923;-76
2022/05/16 15:45:01;;;;;;;7.53;1.17;;;;;;;;;;5133140;27;20492;-74
2022/05/16 15:47:36;;;;;;;1.25;0.77;;;;;;;;;;5131092;27;20035;-77
2022/05/16 15:50:08;;;;;;;3.67;0.90;;;;;;;;;;5132458;27;20047;-75
2022/05/16 15:52:38;;;;;;;5.82;1.13;;;;;;;;;;5131128;27;20054;-75
2022/05/16 15:55:11;;;;;;;2.13;0.80;;;;;;;;;;5132046;27;20039;-75
2022/05/16 15:57:41;;;;;;;6.38;0.80;;;;;;;;;;5130741;27;20055;-73
2022/05/16 16:00:18;;;;;;;8.13;1.38;;;;;;;;;;5130238;27;20039;-75
2022/05/16 16:02:52;;;;;;;11.55;1.63;;;;;;;;;;5127809;27;20506;-75
2022/05/16 16:10:50;;;;;;;3.78;1.08;;;;;;;;;;5130054;27;20044;-74
2022/05/16 16:13:26;;;;;;;3.05;0.60;;;;;;;;;;5129880;27;20046;-74
2022/05/16 16:15:59;;;;;;;5.20;0.80;;;;;;;;;;5129759;27;20095;-72
2022/05/16 16:18:30;;;;;;;1.92;0.60;;;;;;;;;;5129961;27;20054;-74
2022/05/16 16:21:00;;;;;;;2.47;1.00;;;;;;;;;;5129432;27;20043;-74
2022/05/16 16:23:30;;;;;;;2.60;0.90;;;;;;;;;;5128975;27;20051;-74
2022/05/16 16:26:01;;;;;;;4.22;0.70;;;;;;;;;;5129780;27;20489;-73
2022/05/16 16:28:31;;;;;;;4.22;0.70;;;;;;;;;;5129533;27;20043;-74